sensor_id;sensor_type;location;lat;lon;timestamp;pressure;altitude;pressure_sealevel;temperature;humidity
74637;BME280;63141;54.616;39.754;2023-02-01T00:02:12;99158.88;;;22.65;29.70
74637;BME280;63141;54.616;39.754;2023-02-01T00:05:14;99156.22;;;22.65;29.87
74637;BME280;63141;54.616;39.754;2023-02-01T00:08:15;99156.22;;;22.65;29.73
74637;BME280;63141;54.616;39.754;2023-02-01T00:11:16;99158.88;;;22.65;29.63
74637;BME280;63141;54.616;39.754;2023-02-01T00:14:17;99156.22;;;22.65;29.54
74637;BME280;63141;54.616;39.754;2023-02-01T00:17:19;99166.81;;;22.65;29.56
74637;BME280;63141;54.616;39.754;2023-02-01T00:20:20;99163.31;;;22.64;29.67
74637;BME280;63141;54.616;39.754;2023-02-01T00:23:22;99159.81;;;22.64;29.61
74637;BME280;63141;54.616;39.754;2023-02-01T00:26:33;99154.50;;;22.64;29.52
74637;BME280;63141;54.616;39.754;2023-02-01T00:29:35;99154.59;;;22.62;29.50
74637;BME280;63141;54.616;39.754;2023-02-01T00:32:36;99154.66;;;22.61;29.58
74637;BME280;63141;54.616;39.754;2023-02-01T00:35:38;99162.56;;;22.62;29.82
74637;BME280;63141;54.616;39.754;2023-02-01T00:38:39;99164.34;;;22.62;29.68
74637;BME280;63141;54.616;39.754;2023-02-01T00:41:41;99157.31;;;22.61;29.56
74637;BME280;63141;54.616;39.754;2023-02-01T00:44:42;99152.00;;;22.61;29.62
74637;BME280;63141;54.616;39.754;2023-02-01T00:47:44;99152.00;;;22.61;29.56
74637;BME280;63141;54.616;39.754;2023-02-01T00:50:45;99146.81;;;22.59;29.77
74637;BME280;63141;54.616;39.754;2023-02-01T00:53:46;99156.47;;;22.60;29.58
74637;BME280;63141;54.616;39.754;2023-02-01T00:56:48;99149.47;;;22.59;29.41
74637;BME280;63141;54.616;39.754;2023-02-01T00:59:49;99148.50;;;22.60;29.67
74637;BME280;63141;54.616;39.754;2023-02-01T01:02:51;99155.63;;;22.59;29.78
74637;BME280;63141;54.616;39.754;2023-02-01T01:05:57;99155.63;;;22.59;29.71
74637;BME280;63141;54.616;39.754;2023-02-01T01:09:01;99154.78;;;22.59;29.82
74637;BME280;63141;54.616;39.754;2023-02-01T01:12:02;99159.22;;;22.58;29.79
74637;BME280;63141;54.616;39.754;2023-02-01T01:15:06;99164.50;;;22.58;29.77
74637;BME280;63141;54.616;39.754;2023-02-01T01:18:08;99160.94;;;22.59;29.78
74637;BME280;63141;54.616;39.754;2023-02-01T01:21:12;99164.50;;;22.58;29.67
74637;BME280;63141;54.616;39.754;2023-02-01T01:24:14;99173.44;;;22.57;29.68
74637;BME280;63141;54.616;39.754;2023-02-01T01:27:16;99163.78;;;22.56;29.51
74637;BME280;63141;54.616;39.754;2023-02-01T01:30:24;99165.41;;;22.59;29.69
74637;BME280;63141;54.616;39.754;2023-02-01T01:33:25;99157.50;;;22.57;29.68
74637;BME280;63141;54.616;39.754;2023-02-01T01:36:27;99167.28;;;22.57;29.59
74637;BME280;63141;54.616;39.754;2023-02-01T01:39:29;99159.31;;;22.57;29.59
74637;BME280;63141;54.616;39.754;2023-02-01T01:42:30;99158.47;;;22.56;29.42
74637;BME280;63141;54.616;39.754;2023-02-01T01:45:33;99159.31;;;22.57;29.61
74637;BME280;63141;54.616;39.754;2023-02-01T01:48:35;99154.94;;;22.56;29.51
74637;BME280;63141;54.616;39.754;2023-02-01T01:51:44;99159.41;;;22.55;29.49
74637;BME280;63141;54.616;39.754;2023-02-01T01:54:48;99160.25;;;22.56;29.59
74637;BME280;63141;54.616;39.754;2023-02-01T01:58:13;99162.03;;;22.55;29.43
74637;BME280;63141;54.616;39.754;2023-02-01T02:01:16;99166.50;;;22.55;29.47
74637;BME280;63141;54.616;39.754;2023-02-01T02:04:18;99152.38;;;22.54;29.44
74637;BME280;63141;54.616;39.754;2023-02-01T02:07:24;99158.53;;;22.55;29.53
74637;BME280;63141;54.616;39.754;2023-02-01T02:10:27;99163.00;;;22.54;29.46
74637;BME280;63141;54.616;39.754;2023-02-01T02:13:51;99151.50;;;22.54;29.34
74637;BME280;63141;54.616;39.754;2023-02-01T02:34:37;99170.19;;;22.52;29.25
74637;BME280;63141;54.616;39.754;2023-02-01T02:37:46;99171.03;;;22.53;29.36
74637;BME280;63141;54.616;39.754;2023-02-01T02:41:05;99169.34;;;22.52;29.33
74637;BME280;63141;54.616;39.754;2023-02-01T02:44:18;99177.19;;;22.53;29.39
74637;BME280;63141;54.616;39.754;2023-02-01T02:54:40;99190.56;;;22.52;29.31
74637;BME280;63141;54.616;39.754;2023-02-01T02:57:50;99190.56;;;22.52;29.06
74637;BME280;63141;54.616;39.754;2023-02-01T03:01:11;99189.69;;;22.51;29.26
74637;BME280;63141;54.616;39.754;2023-02-01T03:04:32;99188.00;;;22.50;29.14
74637;BME280;63141;54.616;39.754;2023-02-01T03:11:08;99195.09;;;22.50;29.26
74637;BME280;63141;54.616;39.754;2023-02-01T03:14:11;99188.00;;;22.50;29.21
74637;BME280;63141;54.616;39.754;2023-02-01T03:17:19;99188.00;;;22.50;29.15
74637;BME280;63141;54.616;39.754;2023-02-01T03:20:23;99193.31;;;22.50;29.25
74637;BME280;63141;54.616;39.754;2023-02-01T03:23:28;99191.56;;;22.49;29.25
74637;BME280;63141;54.616;39.754;2023-02-01T03:26:34;99192.47;;;22.50;29.25
74637;BME280;63141;54.616;39.754;2023-02-01T03:30:00;99196.88;;;22.49;29.29
74637;BME280;63141;54.616;39.754;2023-02-01T03:33:06;99196.88;;;22.49;29.37
74637;BME280;63141;54.616;39.754;2023-02-01T03:36:20;99196.88;;;22.49;29.26
74637;BME280;63141;54.616;39.754;2023-02-01T03:39:31;99194.22;;;22.49;29.35
74637;BME280;63141;54.616;39.754;2023-02-01T03:42:40;99191.56;;;22.49;29.29
74637;BME280;63141;54.616;39.754;2023-02-01T03:45:47;99180.97;;;22.49;29.37
74637;BME280;63141;54.616;39.754;2023-02-01T03:48:52;99180.97;;;22.49;29.28
74637;BME280;63141;54.616;39.754;2023-02-01T03:51:58;99186.28;;;22.49;29.25
74637;BME280;63141;54.616;39.754;2023-02-01T03:55:01;99191.56;;;22.49;29.19
74637;BME280;63141;54.616;39.754;2023-02-01T03:58:09;99188.00;;;22.50;29.34
74637;BME280;63141;54.616;39.754;2023-02-01T04:01:12;99190.66;;;22.50;29.53
74637;BME280;63141;54.616;39.754;2023-02-01T04:04:15;99191.50;;;22.51;29.50
74637;BME280;63141;54.616;39.754;2023-02-01T04:07:22;99195.97;;;22.50;29.29
74637;BME280;63141;54.616;39.754;2023-02-01T04:10:24;99193.31;;;22.50;29.44
74637;BME280;63141;54.616;39.754;2023-02-01T04:13:26;99195.97;;;22.50;29.44
74637;BME280;63141;54.616;39.754;2023-02-01T04:16:27;99200.41;;;22.50;29.45
74637;BME280;63141;54.616;39.754;2023-02-01T04:19:28;99203.91;;;22.50;29.62
74637;BME280;63141;54.616;39.754;2023-02-01T04:22:30;99206.56;;;22.50;29.40
74637;BME280;63141;54.616;39.754;2023-02-01T04:25:31;99211.88;;;22.50;29.47
74637;BME280;63141;54.616;39.754;2023-02-01T04:28:33;99211.88;;;22.50;29.50
74637;BME280;63141;54.616;39.754;2023-02-01T04:31:34;99210.16;;;22.49;29.49
74637;BME280;63141;54.616;39.754;2023-02-01T04:34:37;99221.66;;;22.50;29.57
74637;BME280;63141;54.616;39.754;2023-02-01T04:37:38;99219.00;;;22.50;29.35
74637;BME280;63141;54.616;39.754;2023-02-01T04:40:40;99221.66;;;22.50;29.40
74637;BME280;63141;54.616;39.754;2023-02-01T04:43:41;99219.00;;;22.50;29.45
74637;BME280;63141;54.616;39.754;2023-02-01T04:46:43;99214.53;;;22.50;29.60
74637;BME280;63141;54.616;39.754;2023-02-01T04:49:44;99212.81;;;22.49;29.62
74637;BME280;63141;54.616;39.754;2023-02-01T04:52:45;99222.50;;;22.50;29.48
74637;BME280;63141;54.616;39.754;2023-02-01T04:55:48;99225.16;;;22.50;29.45
74637;BME280;63141;54.616;39.754;2023-02-01T04:58:51;99232.25;;;22.50;29.35
74637;BME280;63141;54.616;39.754;2023-02-01T05:01:52;99238.41;;;22.50;29.26
74637;BME280;63141;54.616;39.754;2023-02-01T05:04:53;99233.97;;;22.51;29.41
74637;BME280;63141;54.616;39.754;2023-02-01T05:07:56;99238.41;;;22.50;29.37
74637;BME280;63141;54.616;39.754;2023-02-01T05:10:58;99243.72;;;22.50;29.29
74637;BME280;63141;54.616;39.754;2023-02-01T05:14:00;99250.84;;;22.50;29.59
74637;BME280;63141;54.616;39.754;2023-02-01T05:17:01;99249.94;;;22.49;29.47
74637;BME280;63141;54.616;39.754;2023-02-01T05:20:03;99251.69;;;22.50;29.41
74637;BME280;63141;54.616;39.754;2023-02-01T05:23:04;99249.94;;;22.49;29.55
74637;BME280;63141;54.616;39.754;2023-02-01T05:26:06;99256.13;;;22.50;29.47
74637;BME280;63141;54.616;39.754;2023-02-01T05:29:09;99246.44;;;22.49;29.65
74637;BME280;63141;54.616;39.754;2023-02-01T05:32:11;99258.78;;;22.50;29.51
74637;BME280;63141;54.616;39.754;2023-02-01T05:35:12;99258.03;;;22.48;29.36
74637;BME280;63141;54.616;39.754;2023-02-01T05:38:14;99262.47;;;22.47;29.41
74637;BME280;63141;54.616;39.754;2023-02-01T05:41:15;99257.16;;;22.47;29.19
74637;BME280;63141;54.616;39.754;2023-02-01T05:44:16;99260.56;;;22.49;29.32
74637;BME280;63141;54.616;39.754;2023-02-01T05:47:18;99261.34;;;22.51;29.11
74637;BME280;63141;54.616;39.754;2023-02-01T05:50:21;99257.84;;;22.51;29.28
74637;BME280;63141;54.616;39.754;2023-02-01T05:53:30;99258.78;;;22.50;29.04
74637;BME280;63141;54.616;39.754;2023-02-01T05:56:32;99257.00;;;22.50;29.09
74637;BME280;63141;54.616;39.754;2023-02-01T05:59:33;99257.91;;;22.49;29.15
74637;BME280;63141;54.616;39.754;2023-02-01T06:02:35;99255.25;;;22.49;29.06
74637;BME280;63141;54.616;39.754;2023-02-01T06:05:36;99262.47;;;22.47;29.09
74637;BME280;63141;54.616;39.754;2023-02-01T06:08:37;99263.31;;;22.48;28.98
74637;BME280;63141;54.616;39.754;2023-02-01T06:11:41;99260.75;;;22.46;28.99
74637;BME280;63141;54.616;39.754;2023-02-01T06:14:42;99262.47;;;22.47;28.88
74637;BME280;63141;54.616;39.754;2023-02-01T06:17:45;99264.25;;;22.47;28.82
74637;BME280;63141;54.616;39.754;2023-02-01T06:20:53;99266.06;;;22.46;28.86
74637;BME280;63141;54.616;39.754;2023-02-01T06:23:54;99272.22;;;22.47;28.86
74637;BME280;63141;54.616;39.754;2023-02-01T06:26:56;99274.78;;;22.48;28.75
74637;BME280;63141;54.616;39.754;2023-02-01T06:29:58;99267.78;;;22.47;28.46
74637;BME280;63141;54.616;39.754;2023-02-01T06:32:59;99278.41;;;22.47;28.96
74637;BME280;63141;54.616;39.754;2023-02-01T06:36:02;99278.41;;;22.47;28.94
74637;BME280;63141;54.616;39.754;2023-02-01T06:39:04;99273.09;;;22.47;28.71
74637;BME280;63141;54.616;39.754;2023-02-01T06:42:06;99288.13;;;22.47;28.66
74637;BME280;63141;54.616;39.754;2023-02-01T06:45:08;99286.34;;;22.47;28.79
74637;BME280;63141;54.616;39.754;2023-02-01T06:48:09;99291.56;;;22.49;28.68
74637;BME280;63141;54.616;39.754;2023-02-01T06:51:25;99293.28;;;22.50;28.58
74637;BME280;63141;54.616;39.754;2023-02-01T06:54:28;99291.66;;;22.47;28.67
74637;BME280;63141;54.616;39.754;2023-02-01T06:57:29;99293.38;;;22.48;28.65
74637;BME280;63141;54.616;39.754;2023-02-01T07:00:32;99289.84;;;22.48;28.47
74637;BME280;63141;54.616;39.754;2023-02-01T07:03:33;99296.88;;;22.49;28.60
74637;BME280;63141;54.616;39.754;2023-02-01T07:06:35;99287.22;;;22.48;28.46
74637;BME280;63141;54.616;39.754;2023-02-01T07:09:36;99295.06;;;22.49;28.52
74637;BME280;63141;54.616;39.754;2023-02-01T07:12:38;99289.00;;;22.47;28.43
74637;BME280;63141;54.616;39.754;2023-02-01T07:15:39;99289.84;;;22.48;28.41
74637;BME280;63141;54.616;39.754;2023-02-01T07:18:41;99289.75;;;22.49;28.51
74637;BME280;63141;54.616;39.754;2023-02-01T07:21:42;99285.41;;;22.48;28.45
74637;BME280;63141;54.616;39.754;2023-02-01T07:24:43;99280.94;;;22.49;28.37
74637;BME280;63141;54.616;39.754;2023-02-01T07:27:45;99285.31;;;22.50;28.40
74637;BME280;63141;54.616;39.754;2023-02-01T07:30:47;99277.44;;;22.48;28.35
74637;BME280;63141;54.616;39.754;2023-02-01T07:33:54;99289.75;;;22.49;28.44
74637;BME280;63141;54.616;39.754;2023-02-01T07:36:57;99293.28;;;22.50;28.19
74637;BME280;63141;54.616;39.754;2023-02-01T07:39:58;99287.97;;;22.50;28.33
74637;BME280;63141;54.616;39.754;2023-02-01T07:42:59;99287.09;;;22.49;28.32
74637;BME280;63141;54.616;39.754;2023-02-01T07:46:02;99292.41;;;22.49;28.27
74637;BME280;63141;54.616;39.754;2023-02-01T07:49:05;99294.13;;;22.50;28.32
74637;BME280;63141;54.616;39.754;2023-02-01T07:52:06;99289.69;;;22.51;28.23
74637;BME280;63141;54.616;39.754;2023-02-01T07:55:08;99299.44;;;22.50;28.28
74637;BME280;63141;54.616;39.754;2023-02-01T07:58:10;99295.84;;;22.51;28.20
74637;BME280;63141;54.616;39.754;2023-02-01T08:01:20;99300.28;;;22.51;28.52
74637;BME280;63141;54.616;39.754;2023-02-01T08:04:22;99300.28;;;22.51;28.32
74637;BME280;63141;54.616;39.754;2023-02-01T08:07:23;99300.28;;;22.51;28.13
74637;BME280;63141;54.616;39.754;2023-02-01T08:10:24;99304.75;;;22.50;28.14
74637;BME280;63141;54.616;39.754;2023-02-01T08:13:26;99295.00;;;22.51;28.07
74637;BME280;63141;54.616;39.754;2023-02-01T08:16:27;99292.34;;;22.51;28.14
74637;BME280;63141;54.616;39.754;2023-02-01T08:19:28;99284.38;;;22.51;28.15
74637;BME280;63141;54.616;39.754;2023-02-01T08:22:33;99286.94;;;22.52;28.16
74637;BME280;63141;54.616;39.754;2023-02-01T08:25:34;99289.69;;;22.51;28.07
74637;BME280;63141;54.616;39.754;2023-02-01T08:28:38;99277.25;;;22.51;28.14
74637;BME280;63141;54.616;39.754;2023-02-01T08:31:40;99281.66;;;22.52;28.06
74637;BME280;63141;54.616;39.754;2023-02-01T08:34:42;99286.94;;;22.52;28.06
74637;BME280;63141;54.616;39.754;2023-02-01T08:37:44;99288.66;;;22.53;28.10
74637;BME280;63141;54.616;39.754;2023-02-01T08:40:45;99283.34;;;22.53;28.16
74637;BME280;63141;54.616;39.754;2023-02-01T08:43:47;99285.16;;;22.53;27.97
74637;BME280;63141;54.616;39.754;2023-02-01T08:46:49;99293.03;;;22.54;27.97
74637;BME280;63141;54.616;39.754;2023-02-01T08:49:50;99278.03;;;22.53;27.98
74637;BME280;63141;54.616;39.754;2023-02-01T08:52:53;99291.22;;;22.55;27.95
74637;BME280;63141;54.616;39.754;2023-02-01T08:55:54;99288.66;;;22.53;27.89
74637;BME280;63141;54.616;39.754;2023-02-01T08:58:56;99279.78;;;22.54;27.96
74637;BME280;63141;54.616;39.754;2023-02-01T09:01:57;99285.06;;;22.54;27.92
74637;BME280;63141;54.616;39.754;2023-02-01T09:04:58;99283.34;;;22.53;27.92
74637;BME280;63141;54.616;39.754;2023-02-01T09:08:00;99286.00;;;22.53;27.97
74637;BME280;63141;54.616;39.754;2023-02-01T09:11:04;99285.06;;;22.54;27.85
74637;BME280;63141;54.616;39.754;2023-02-01T09:14:05;99279.78;;;22.54;27.79
74637;BME280;63141;54.616;39.754;2023-02-01T09:17:07;99285.06;;;22.54;27.77
74637;BME280;63141;54.616;39.754;2023-02-01T09:20:09;99283.34;;;22.53;27.82
74637;BME280;63141;54.616;39.754;2023-02-01T09:23:11;99281.53;;;22.54;27.80
74637;BME280;63141;54.616;39.754;2023-02-01T09:26:12;99284.19;;;22.54;27.86
74637;BME280;63141;54.616;39.754;2023-02-01T09:29:14;99280.69;;;22.53;27.78
74637;BME280;63141;54.616;39.754;2023-02-01T09:32:15;99279.84;;;22.53;27.91
74637;BME280;63141;54.616;39.754;2023-02-01T09:35:17;99283.34;;;22.53;27.82
74637;BME280;63141;54.616;39.754;2023-02-01T09:38:18;99285.06;;;22.54;27.71
74637;BME280;63141;54.616;39.754;2023-02-01T09:48:05;99283.34;;;22.53;27.90
74637;BME280;63141;54.616;39.754;2023-02-01T09:51:16;99285.06;;;22.54;27.78
74637;BME280;63141;54.616;39.754;2023-02-01T09:54:23;99280.69;;;22.53;27.86
74637;BME280;63141;54.616;39.754;2023-02-01T09:57:51;99268.28;;;22.54;27.63
74637;BME280;63141;54.616;39.754;2023-02-01T10:00:58;99275.38;;;22.53;27.63
74637;BME280;63141;54.616;39.754;2023-02-01T10:04:05;99278.03;;;22.53;27.77
74637;BME280;63141;54.616;39.754;2023-02-01T10:26:21;99259.47;;;22.53;27.60
74637;BME280;63141;54.616;39.754;2023-02-01T10:29:26;99256.81;;;22.53;27.56
74637;BME280;63141;54.616;39.754;2023-02-01T10:32:30;99255.09;;;22.52;27.59
74637;BME280;63141;54.616;39.754;2023-02-01T10:35:33;99256.81;;;22.53;27.64
74637;BME280;63141;54.616;39.754;2023-02-01T10:38:37;99252.34;;;22.54;27.51
74637;BME280;63141;54.616;39.754;2023-02-01T10:41:39;99262.97;;;22.54;27.60
74637;BME280;63141;54.616;39.754;2023-02-01T10:44:43;99254.06;;;22.55;27.48
74637;BME280;63141;54.616;39.754;2023-02-01T10:47:48;99250.56;;;22.54;27.78
74637;BME280;63141;54.616;39.754;2023-02-01T10:50:57;99260.22;;;22.55;27.52
74637;BME280;63141;54.616;39.754;2023-02-01T10:54:03;99248.59;;;22.58;27.95
74637;BME280;63141;54.616;39.754;2023-02-01T10:57:19;99250.31;;;22.59;28.54
74637;BME280;63141;54.616;39.754;2023-02-01T11:00:21;99247.56;;;22.61;28.43
74637;BME280;63141;54.616;39.754;2023-02-01T11:03:39;99251.09;;;22.61;28.37
74637;BME280;63141;54.616;39.754;2023-02-01T11:06:43;99251.94;;;22.62;28.47
74637;BME280;63141;54.616;39.754;2023-02-01T11:09:54;99246.56;;;22.63;28.29
74637;BME280;63141;54.616;39.754;2023-02-01T11:12:56;99240.47;;;22.61;28.22
74637;BME280;63141;54.616;39.754;2023-02-01T11:16:02;99245.69;;;22.63;28.26
74637;BME280;63141;54.616;39.754;2023-02-01T11:19:05;99238.66;;;22.62;28.40
74637;BME280;63141;54.616;39.754;2023-02-01T11:22:06;99243.97;;;22.62;28.28
74637;BME280;63141;54.616;39.754;2023-02-01T11:25:09;99245.69;;;22.63;28.26
74637;BME280;63141;54.616;39.754;2023-02-01T11:28:12;99244.84;;;22.62;28.15
74637;BME280;63141;54.616;39.754;2023-02-01T11:31:13;99243.97;;;22.62;28.08
74637;BME280;63141;54.616;39.754;2023-02-01T11:34:18;99240.38;;;22.63;28.12
74637;BME280;63141;54.616;39.754;2023-02-01T11:37:29;99238.66;;;22.62;28.03
74637;BME280;63141;54.616;39.754;2023-02-01T11:40:36;99253.63;;;22.63;28.07
74637;BME280;63141;54.616;39.754;2023-02-01T11:43:37;99250.13;;;22.62;28.13
74637;BME280;63141;54.616;39.754;2023-02-01T11:46:50;99243.91;;;22.63;28.00
74637;BME280;63141;54.616;39.754;2023-02-01T11:49:57;99251.00;;;22.63;28.07
74637;BME280;63141;54.616;39.754;2023-02-01T11:56:31;99258.03;;;22.64;27.97
74637;BME280;63141;54.616;39.754;2023-02-01T12:20:09;99268.13;;;22.57;27.88
74637;BME280;63141;54.616;39.754;2023-02-01T12:43:50;99272.72;;;22.53;27.78
74637;BME280;63141;54.616;39.754;2023-02-01T12:46:57;99271.03;;;22.52;27.87
74637;BME280;63141;54.616;39.754;2023-02-01T12:50:40;99273.69;;;22.52;27.77
74637;BME280;63141;54.616;39.754;2023-02-01T12:53:55;99270.19;;;22.52;27.63
74637;BME280;63141;54.616;39.754;2023-02-01T12:57:04;99272.84;;;22.52;27.81
74637;BME280;63141;54.616;39.754;2023-02-01T13:04:12;99276.34;;;22.52;27.60
74637;BME280;63141;54.616;39.754;2023-02-01T13:07:32;99277.19;;;22.53;27.76
74637;BME280;63141;54.616;39.754;2023-02-01T13:10:56;99273.69;;;22.52;27.80
74637;BME280;63141;54.616;39.754;2023-02-01T13:14:17;99271.97;;;22.51;27.58
74637;BME280;63141;54.616;39.754;2023-02-01T13:17:25;99274.59;;;22.51;27.64
74637;BME280;63141;54.616;39.754;2023-02-01T13:23:40;99276.34;;;22.52;27.91
74637;BME280;63141;54.616;39.754;2023-02-01T13:26:42;99280.78;;;22.52;27.88
74637;BME280;63141;54.616;39.754;2023-02-01T13:29:59;99274.53;;;22.53;27.78
74637;BME280;63141;54.616;39.754;2023-02-01T13:39:39;99278.22;;;22.50;27.72
74637;BME280;63141;54.616;39.754;2023-02-01T13:42:50;99274.59;;;22.51;27.70
74637;BME280;63141;54.616;39.754;2023-02-01T13:46:13;99274.59;;;22.51;27.74
74637;BME280;63141;54.616;39.754;2023-02-01T13:49:25;99272.06;;;22.50;27.61
74637;BME280;63141;54.616;39.754;2023-02-01T13:52:35;99272.91;;;22.50;27.75
74637;BME280;63141;54.616;39.754;2023-02-01T13:55:38;99278.22;;;22.50;27.75
74637;BME280;63141;54.616;39.754;2023-02-01T13:58:43;99279.91;;;22.51;27.78
74637;BME280;63141;54.616;39.754;2023-02-01T14:01:45;99278.22;;;22.50;27.73
74637;BME280;63141;54.616;39.754;2023-02-01T14:04:49;99284.38;;;22.51;27.77
74637;BME280;63141;54.616;39.754;2023-02-01T14:08:41;99284.38;;;22.51;27.60
74637;BME280;63141;54.616;39.754;2023-02-01T14:14:48;99293.19;;;22.51;27.57
74637;BME280;63141;54.616;39.754;2023-02-01T14:17:49;99295.84;;;22.51;27.63
74637;BME280;63141;54.616;39.754;2023-02-01T14:21:22;99302.88;;;22.52;27.54
74637;BME280;63141;54.616;39.754;2023-02-01T14:24:26;99310.84;;;22.52;27.58
74637;BME280;63141;54.616;39.754;2023-02-01T14:27:30;99314.34;;;22.53;27.52
74637;BME280;63141;54.616;39.754;2023-02-01T14:30:36;99318.78;;;22.52;27.54
74637;BME280;63141;54.616;39.754;2023-02-01T14:33:41;99320.50;;;22.53;27.47
74637;BME280;63141;54.616;39.754;2023-02-01T14:37:08;99324.09;;;22.52;27.52
74637;BME280;63141;54.616;39.754;2023-02-01T14:43:12;99328.47;;;22.53;27.59
74637;BME280;63141;54.616;39.754;2023-02-01T14:46:13;99324.94;;;22.53;27.58
74637;BME280;63141;54.616;39.754;2023-02-01T14:49:15;99336.41;;;22.53;27.38
74637;BME280;63141;54.616;39.754;2023-02-01T14:52:19;99323.16;;;22.53;27.78
74637;BME280;63141;54.616;39.754;2023-02-01T14:55:25;99327.59;;;22.53;27.33
74637;BME280;63141;54.616;39.754;2023-02-01T15:02:24;99334.63;;;22.54;27.38
74637;BME280;63141;54.616;39.754;2023-02-01T15:05:30;99329.41;;;22.52;27.47
74637;BME280;63141;54.616;39.754;2023-02-01T15:08:37;99333.75;;;22.53;27.38
74637;BME280;63141;54.616;39.754;2023-02-01T15:15:15;99337.25;;;22.54;27.32
74637;BME280;63141;54.616;39.754;2023-02-01T15:18:18;99342.56;;;22.54;27.39
74637;BME280;63141;54.616;39.754;2023-02-01T15:21:22;99343.47;;;22.54;27.49
74637;BME280;63141;54.616;39.754;2023-02-01T15:24:25;99343.47;;;22.54;27.51
74637;BME280;63141;54.616;39.754;2023-02-01T15:27:28;99344.38;;;22.53;27.20
74637;BME280;63141;54.616;39.754;2023-02-01T15:30:33;99354.06;;;22.54;27.34
74637;BME280;63141;54.616;39.754;2023-02-01T15:33:34;99346.13;;;22.54;27.49
74637;BME280;63141;54.616;39.754;2023-02-01T15:36:36;99355.84;;;22.54;27.43
74637;BME280;63141;54.616;39.754;2023-02-01T15:43:12;99353.19;;;22.54;27.26
74637;BME280;63141;54.616;39.754;2023-02-01T15:46:16;99351.41;;;22.54;27.40
74637;BME280;63141;54.616;39.754;2023-02-01T15:49:26;99359.38;;;22.54;27.46
74637;BME280;63141;54.616;39.754;2023-02-01T15:52:36;99354.06;;;22.54;27.26
74637;BME280;63141;54.616;39.754;2023-02-01T15:55:40;99354.91;;;22.55;27.38
74637;BME280;63141;54.616;39.754;2023-02-01T15:58:46;99355.78;;;22.55;27.44
74637;BME280;63141;54.616;39.754;2023-02-01T16:01:49;99350.53;;;22.54;27.16
74637;BME280;63141;54.616;39.754;2023-02-01T16:04:52;99356.72;;;22.54;27.20
74637;BME280;63141;54.616;39.754;2023-02-01T16:14:11;99353.19;;;22.54;27.16
74637;BME280;63141;54.616;39.754;2023-02-01T16:17:12;99354.06;;;22.54;27.24
74637;BME280;63141;54.616;39.754;2023-02-01T16:20:14;99351.31;;;22.56;27.22
74637;BME280;63141;54.616;39.754;2023-02-01T16:23:16;99354.84;;;22.56;27.50
74637;BME280;63141;54.616;39.754;2023-02-01T16:26:18;99352.94;;;22.58;27.65
74637;BME280;63141;54.616;39.754;2023-02-01T16:29:20;99358.25;;;22.58;27.82
74637;BME280;63141;54.616;39.754;2023-02-01T16:32:22;99352.88;;;22.60;27.98
74637;BME280;63141;54.616;39.754;2023-02-01T16:35:26;99357.31;;;22.59;27.95
74637;BME280;63141;54.616;39.754;2023-02-01T16:38:28;99355.44;;;22.62;28.16
74637;BME280;63141;54.616;39.754;2023-02-01T16:41:29;99362.47;;;22.63;28.24
74637;BME280;63141;54.616;39.754;2023-02-01T16:44:31;99366.84;;;22.64;28.42
74637;BME280;63141;54.616;39.754;2023-02-01T16:47:32;99358.88;;;22.64;28.67
74637;BME280;63141;54.616;39.754;2023-02-01T16:50:34;99363.34;;;22.63;28.46
74637;BME280;63141;54.616;39.754;2023-02-01T16:53:36;99361.59;;;22.62;28.60
74637;BME280;63141;54.616;39.754;2023-02-01T16:56:39;99351.00;;;22.62;28.43
74637;BME280;63141;54.616;39.754;2023-02-01T16:59:43;99360.75;;;22.62;28.71
74637;BME280;63141;54.616;39.754;2023-02-01T17:02:47;99358.25;;;22.58;28.76
74637;BME280;63141;54.616;39.754;2023-02-01T17:05:52;99356.47;;;22.59;28.75
74637;BME280;63141;54.616;39.754;2023-02-01T17:08:56;99355.59;;;22.58;28.98
74637;BME280;63141;54.616;39.754;2023-02-01T17:12:00;99354.75;;;22.58;29.03
74637;BME280;63141;54.616;39.754;2023-02-01T17:15:02;99356.38;;;22.61;29.62
74637;BME280;63141;54.616;39.754;2023-02-01T17:18:06;99357.00;;;22.66;29.96
74637;BME280;63141;54.616;39.754;2023-02-01T17:21:12;99359.47;;;22.69;30.26
74637;BME280;63141;54.616;39.754;2023-02-01T17:24:15;99361.09;;;22.71;30.23
74637;BME280;63141;54.616;39.754;2023-02-01T17:27:17;99361.81;;;22.75;30.51
74637;BME280;63141;54.616;39.754;2023-02-01T17:30:18;99368.63;;;22.79;30.53
74637;BME280;63141;54.616;39.754;2023-02-01T17:33:23;99368.63;;;22.79;30.90
74637;BME280;63141;54.616;39.754;2023-02-01T17:36:25;99364.03;;;22.83;31.26
74637;BME280;63141;54.616;39.754;2023-02-01T17:39:27;99369.25;;;22.84;30.94
74637;BME280;63141;54.616;39.754;2023-02-01T17:42:46;99368.84;;;22.92;30.59
74637;BME280;63141;54.616;39.754;2023-02-01T17:45:54;99361.38;;;22.98;30.56
74637;BME280;63141;54.616;39.754;2023-02-01T17:48:56;99363.56;;;23.08;30.03
74637;BME280;63141;54.616;39.754;2023-02-01T17:51:58;99364.16;;;23.13;29.89
74637;BME280;63141;54.616;39.754;2023-02-01T17:54:59;99363.13;;;23.15;29.61
74637;BME280;63141;54.616;39.754;2023-02-01T17:58:01;99362.84;;;23.20;29.88
74637;BME280;63141;54.616;39.754;2023-02-01T18:01:02;99355.91;;;23.33;29.87
74637;BME280;63141;54.616;39.754;2023-02-01T18:04:03;99366.59;;;23.48;29.45
74637;BME280;63141;54.616;39.754;2023-02-01T18:07:07;99366.06;;;23.57;29.66
74637;BME280;63141;54.616;39.754;2023-02-01T18:10:10;99360.38;;;23.63;29.47
74637;BME280;63141;54.616;39.754;2023-02-01T18:13:11;99358.22;;;23.70;29.57
74637;BME280;63141;54.616;39.754;2023-02-01T18:19:24;99359.34;;;23.66;29.33
74637;BME280;63141;54.616;39.754;2023-02-01T18:22:27;99366.56;;;23.63;29.32
74637;BME280;63141;54.616;39.754;2023-02-01T18:25:30;99359.63;;;23.61;29.83